Time;durP1;ratioP1;P1;durP2;ratioP2;P2;SDS_P1;SDS_P2;PMS_P1;PMS_P2;Temp;Humidity;BMP_temperature;BMP_pressure;BME280_temperature;BME280_humidity;BME280_pressure;Samples;Min_cycle;Max_cycle;Signal;HPM_P1;HPM_P2
2023/03/22 00:01:55;;;;;;;12.30;9.33;;;12.10;99.90;;;;;;5073848;28;20325;-77
2023/03/22 00:04:20;;;;;;;15.27;9.50;;;12.10;99.90;;;;;;5074298;28;20687;-77
2023/03/22 00:06:46;;;;;;;12.07;9.60;;;12.10;99.90;;;;;;5074294;28;20536;-76
2023/03/22 00:09:11;;;;;;;10.17;8.90;;;12.10;99.90;;;;;;5073891;28;20687;-76
2023/03/22 00:11:40;;;;;;;10.20;8.90;;;12.10;99.90;;;;;;5073834;28;20211;-77
2023/03/22 00:14:06;;;;;;;9.57;8.40;;;12.00;99.90;;;;;;5073637;28;20222;-77
2023/03/22 00:16:31;;;;;;;9.70;8.70;;;12.00;99.90;;;;;;5073302;28;20228;-77
2023/03/22 00:19:00;;;;;;;9.07;8.17;;;12.00;99.90;;;;;;5055839;28;20611;-76
2023/03/22 00:21:28;;;;;;;10.03;8.37;;;12.00;99.90;;;;;;5073652;28;20169;-76
2023/03/22 00:23:53;;;;;;;10.23;8.63;;;11.90;99.90;;;;;;5073761;28;20200;-76
2023/03/22 00:26:19;;;;;;;11.03;8.77;;;11.90;99.90;;;;;;5073669;28;20200;-75
2023/03/22 00:28:45;;;;;;;11.33;8.80;;;11.90;99.90;;;;;;5055432;28;20234;-75
2023/03/22 00:31:11;;;;;;;10.03;8.83;;;11.80;99.90;;;;;;5055554;28;20227;-77
2023/03/22 00:33:37;;;;;;;10.10;8.07;;;11.80;99.90;;;;;;5073622;28;20628;-76
2023/03/22 00:36:10;;;;;;;14.60;8.87;;;11.80;99.90;;;;;;5073443;28;20183;-76
2023/03/22 00:38:37;;;;;;;11.77;8.50;;;11.90;99.90;;;;;;5073491;28;20177;-76
2023/03/22 00:41:11;;;;;;;10.10;8.37;;;11.80;99.90;;;;;;5073223;28;20530;-77
2023/03/22 00:43:37;;;;;;;12.70;9.07;;;11.80;99.90;;;;;;5072935;28;20176;-75
2023/03/22 00:46:04;;;;;;;13.33;8.67;;;11.80;99.90;;;;;;5073062;28;20164;-75
2023/03/22 00:48:30;;;;;;;10.53;8.33;;;11.80;99.90;;;;;;5073210;28;20243;-75
2023/03/22 00:50:56;;;;;;;10.80;8.47;;;11.80;99.90;;;;;;5073112;28;20176;-76
2023/03/22 00:53:21;;;;;;;11.60;8.33;;;11.80;99.90;;;;;;5073254;28;20176;-76
2023/03/22 00:55:47;;;;;;;10.70;8.23;;;11.80;99.90;;;;;;5072955;28;20642;-76
2023/03/22 00:58:12;;;;;;;12.17;8.90;;;11.70;99.90;;;;;;5072697;28;20188;-77
2023/03/22 01:00:38;;;;;;;11.10;8.57;;;11.70;99.90;;;;;;5055356;28;20539;-77
2023/03/22 01:03:07;;;;;;;14.67;8.87;;;11.70;99.90;;;;;;5055401;28;20712;-77
2023/03/22 01:05:33;;;;;;;11.80;8.80;;;11.60;99.90;;;;;;5073094;28;20161;-77
2023/03/22 01:08:07;;;;;;;12.07;8.47;;;11.60;99.90;;;;;;5073233;28;20184;-76
2023/03/22 01:10:37;;;;;;;11.20;7.73;;;11.60;99.90;;;;;;5072684;28;20188;-77
2023/03/22 01:13:04;;;;;;;10.33;7.73;;;11.60;99.90;;;;;;5073543;28;20163;-75
2023/03/22 01:15:30;;;;;;;11.20;7.90;;;11.60;99.90;;;;;;5054667;28;20254;-76
2023/03/22 01:17:55;;;;;;;9.63;7.50;;;11.60;99.90;;;;;;5073061;28;20172;-75
2023/03/22 01:20:21;;;;;;;9.77;7.33;;;11.60;99.90;;;;;;5073063;28;20214;-75
2023/03/22 01:22:50;;;;;;;11.23;7.13;;;11.60;99.90;;;;;;5072862;28;20215;-75
2023/03/22 01:25:19;;;;;;;12.37;7.20;;;11.60;99.90;;;;;;5072488;28;20198;-75
2023/03/22 01:27:47;;;;;;;10.63;7.27;;;11.60;99.90;;;;;;5073279;28;20243;-76
2023/03/22 01:30:13;;;;;;;9.57;7.07;;;11.60;99.90;;;;;;5055443;28;20168;-76
2023/03/22 01:32:39;;;;;;;14.97;7.90;;;11.60;99.90;;;;;;5055006;28;20700;-76
2023/03/22 01:35:06;;;;;;;10.97;7.23;;;11.60;99.90;;;;;;5055027;28;20176;-76
2023/03/22 01:37:31;;;;;;;11.30;7.33;;;11.50;99.90;;;;;;5072886;28;20214;-76
2023/03/22 01:40:00;;;;;;;13.80;7.33;;;11.50;99.90;;;;;;5054526;28;20177;-76
2023/03/22 01:42:26;;;;;;;8.57;6.83;;;11.50;99.90;;;;;;5072770;28;20248;-76
2023/03/22 01:45:33;;;;;;;12.17;7.23;;;11.50;99.90;;;;;;5072791;28;20181;-75
2023/03/22 01:48:12;;;;;;;12.37;7.20;;;11.50;99.90;;;;;;5014106;28;20732;-76
2023/03/22 01:50:41;;;;;;;9.70;6.97;;;11.50;99.90;;;;;;5030833;28;20174;-76
2023/03/22 01:53:09;;;;;;;10.57;6.97;;;11.50;99.90;;;;;;5055744;28;20181;-75
2023/03/22 01:55:36;;;;;;;10.33;6.50;;;11.50;99.90;;;;;;5072510;28;20164;-75
2023/03/22 01:58:03;;;;;;;10.80;6.53;;;11.50;99.90;;;;;;5075075;28;20193;-75
2023/03/22 02:00:29;;;;;;;13.53;6.43;;;11.40;99.90;;;;;;5075810;28;20188;-76
2023/03/22 02:02:55;;;;;;;8.60;6.50;;;11.40;99.90;;;;;;5076305;28;20210;-76
2023/03/22 02:05:21;;;;;;;9.13;6.20;;;11.40;99.90;;;;;;5076348;28;20169;-76
2023/03/22 02:07:48;;;;;;;8.70;6.37;;;11.40;99.90;;;;;;5076358;28;20169;-76
2023/03/22 02:10:18;;;;;;;12.60;6.57;;;11.40;99.90;;;;;;5058186;28;20176;-75
2023/03/22 02:13:10;;;;;;;9.17;6.47;;;11.40;99.90;;;;;;5076368;28;20165;-76
2023/03/22 02:15:54;;;;;;;11.60;6.17;;;11.30;99.90;;;;;;5075905;28;20196;-76
2023/03/22 02:19:12;;;;;;;8.70;5.90;;;11.40;99.90;;;;;;5076315;28;20182;-76
2023/03/22 02:21:47;;;;;;;9.23;6.23;;;11.40;99.90;;;;;;5076077;28;20709;-77
2023/03/22 02:24:34;;;;;;;8.27;5.40;;;11.40;99.90;;;;;;5057724;28;20183;-76
2023/03/22 02:27:19;;;;;;;12.70;6.10;;;11.40;99.90;;;;;;5076076;28;20165;-76
2023/03/22 02:29:57;;;;;;;6.80;4.77;;;11.50;99.90;;;;;;5057855;28;20667;-76
2023/03/22 02:32:25;;;;;;;6.20;5.37;;;11.50;99.90;;;;;;5057982;28;20507;-75
2023/03/22 02:35:03;;;;;;;9.43;5.93;;;11.50;99.90;;;;;;5075991;28;20165;-75
2023/03/22 02:37:44;;;;;;;12.47;6.50;;;11.50;99.90;;;;;;5075587;28;20164;-77
2023/03/22 02:40:27;;;;;;;6.80;5.37;;;11.60;99.90;;;;;;5075811;28;20160;-75
2023/03/22 02:43:12;;;;;;;10.50;5.50;;;11.60;99.90;;;;;;5075889;28;20179;-75
2023/03/22 02:46:05;;;;;;;10.93;5.17;;;11.60;99.90;;;;;;5057790;28;20195;-76
2023/03/22 02:49:10;;;;;;;11.13;6.00;;;11.60;99.90;;;;;;5075545;28;20232;-74
2023/03/22 02:51:42;;;;;;;8.10;5.00;;;11.60;99.90;;;;;;5073168;28;20216;-75
2023/03/22 02:54:33;;;;;;;7.97;5.23;;;11.60;99.90;;;;;;5075200;28;20165;-75
2023/03/22 02:57:13;;;;;;;12.20;5.50;;;11.50;99.90;;;;;;5074902;28;20185;-76
2023/03/22 02:59:40;;;;;;;7.37;5.20;;;11.50;99.90;;;;;;5075157;28;20180;-75
2023/03/22 03:02:10;;;;;;;8.50;5.43;;;11.50;99.90;;;;;;5057307;28;20199;-75
2023/03/22 03:04:41;;;;;;;6.67;5.13;;;11.50;99.90;;;;;;5075469;28;20192;-76
2023/03/22 03:07:10;;;;;;;10.33;4.63;;;11.40;99.90;;;;;;5074870;28;20211;-75
2023/03/22 03:09:43;;;;;;;7.30;5.13;;;11.40;99.90;;;;;;5075200;28;20207;-75
2023/03/22 03:12:20;;;;;;;8.60;5.07;;;11.40;99.90;;;;;;5075177;28;20160;-75
2023/03/22 03:14:45;;;;;;;12.97;5.50;;;11.30;99.90;;;;;;5075171;28;20157;-75
2023/03/22 03:17:29;;;;;;;8.90;4.87;;;11.30;99.90;;;;;;5074796;28;20226;-75
2023/03/22 03:20:07;;;;;;;12.43;5.23;;;11.30;99.90;;;;;;5074989;28;20251;-75
2023/03/22 03:22:46;;;;;;;10.67;5.13;;;11.30;99.90;;;;;;5074715;28;20168;-75
2023/03/22 03:25:23;;;;;;;8.33;4.57;;;11.20;99.90;;;;;;5074948;28;20172;-76
2023/03/22 03:28:13;;;;;;;7.07;4.50;;;11.20;99.90;;;;;;5057003;28;20199;-75
2023/03/22 03:30:49;;;;;;;7.77;4.40;;;11.20;99.90;;;;;;5068861;28;20218;-75
2023/03/22 03:33:19;;;;;;;12.57;4.60;;;11.10;99.90;;;;;;5075037;28;20222;-76
2023/03/22 03:35:55;;;;;;;6.63;4.67;;;11.10;99.90;;;;;;5074769;28;20169;-75
2023/03/22 03:38:26;;;;;;;7.87;4.80;;;11.00;99.90;;;;;;5074768;28;20241;-75
2023/03/22 03:40:58;;;;;;;9.63;4.83;;;11.00;99.90;;;;;;5074540;28;20172;-75
2023/03/22 03:43:27;;;;;;;5.47;4.27;;;11.00;99.90;;;;;;5074731;28;20551;-75
2023/03/22 03:45:54;;;;;;;7.90;4.20;;;11.00;99.90;;;;;;5074623;28;20279;-75
2023/03/22 03:48:27;;;;;;;6.07;4.33;;;10.90;99.90;;;;;;5074454;28;20189;-75
2023/03/22 03:50:55;;;;;;;7.73;4.33;;;10.90;99.90;;;;;;5074125;28;20165;-75
2023/03/22 03:53:24;;;;;;;8.13;4.50;;;11.00;99.90;;;;;;5074431;28;20184;-75
2023/03/22 03:55:49;;;;;;;10.00;4.70;;;10.90;99.90;;;;;;5074336;28;20175;-76
2023/03/22 03:58:21;;;;;;;11.47;4.77;;;10.90;99.90;;;;;;5074340;28;20193;-75
2023/03/22 04:00:47;;;;;;;9.10;4.10;;;10.90;99.90;;;;;;5074096;28;20258;-75
2023/03/22 04:03:16;;;;;;;7.77;3.83;;;10.90;99.90;;;;;;5074187;28;20169;-74
2023/03/22 04:05:42;;;;;;;8.50;4.50;;;10.90;99.90;;;;;;5073586;28;20172;-74
2023/03/22 04:08:07;;;;;;;10.30;4.60;;;10.90;99.90;;;;;;5074052;28;20192;-75
2023/03/22 04:10:33;;;;;;;9.13;4.30;;;10.80;99.90;;;;;;5073852;28;20180;-75
2023/03/22 04:13:02;;;;;;;5.20;4.00;;;10.80;99.90;;;;;;5073932;28;20200;-75
2023/03/22 04:15:28;;;;;;;6.70;4.07;;;10.80;99.90;;;;;;5055689;28;20577;-76
2023/03/22 04:17:53;;;;;;;11.90;4.60;;;10.70;99.90;;;;;;5073999;28;20165;-75
2023/03/22 04:20:19;;;;;;;8.83;4.10;;;10.70;99.90;;;;;;5072761;28;20165;-75
2023/03/22 04:22:48;;;;;;;9.60;4.57;;;10.70;99.90;;;;;;5073627;28;20191;-75
2023/03/22 04:25:16;;;;;;;8.77;4.07;;;10.80;99.90;;;;;;5055677;28;20605;-75
2023/03/22 04:27:44;;;;;;;6.37;4.50;;;10.80;99.90;;;;;;5073599;28;20168;-75
2023/03/22 04:30:17;;;;;;;7.90;4.40;;;10.80;99.90;;;;;;5073539;28;20222;-76
2023/03/22 04:32:43;;;;;;;5.57;4.10;;;10.80;99.90;;;;;;5073104;28;20246;-76
2023/03/22 04:35:12;;;;;;;7.10;4.27;;;10.90;99.90;;;;;;5073090;28;20168;-76
2023/03/22 04:37:41;;;;;;;8.40;4.63;;;10.90;99.90;;;;;;5073362;28;20172;-76
2023/03/22 04:40:08;;;;;;;6.57;4.27;;;10.90;99.90;;;;;;5072864;28;20172;-76
2023/03/22 04:42:37;;;;;;;7.97;4.33;;;10.90;99.90;;;;;;5073249;28;20180;-76
2023/03/22 04:45:03;;;;;;;9.23;4.70;;;10.90;99.90;;;;;;5072995;28;20169;-75
2023/03/22 04:47:29;;;;;;;6.73;4.77;;;11.00;99.90;;;;;;5055041;28;20187;-75
2023/03/22 04:49:55;;;;;;;8.93;4.90;;;10.90;99.90;;;;;;5072770;28;20214;-75
2023/03/22 04:52:20;;;;;;;9.33;5.53;;;11.00;99.90;;;;;;5054939;28;20259;-75
2023/03/22 04:54:46;;;;;;;8.73;5.07;;;11.00;99.90;;;;;;5072639;28;20229;-75
2023/03/22 04:57:14;;;;;;;10.43;5.57;;;11.00;99.90;;;;;;5073074;28;20244;-76
2023/03/22 04:59:40;;;;;;;8.27;5.30;;;11.00;99.90;;;;;;5072879;28;20212;-74
2023/03/22 05:02:08;;;;;;;10.60;5.80;;;11.00;99.90;;;;;;5054902;28;20651;-75
2023/03/22 05:04:34;;;;;;;8.80;4.77;;;10.90;99.90;;;;;;5072621;28;20256;-75
2023/03/22 05:06:59;;;;;;;9.33;5.33;;;10.90;99.90;;;;;;5072575;28;20597;-75
2023/03/22 05:09:25;;;;;;;8.70;5.20;;;10.90;99.90;;;;;;5072693;28;20269;-76
2023/03/22 05:11:50;;;;;;;9.07;4.90;;;10.80;99.90;;;;;;5072698;28;20551;-76
2023/03/22 05:14:19;;;;;;;10.87;4.87;;;10.80;99.90;;;;;;5072649;28;20183;-76
2023/03/22 05:16:44;;;;;;;9.77;4.87;;;10.80;99.90;;;;;;5072191;28;20232;-75
2023/03/22 05:19:12;;;;;;;8.77;4.30;;;10.80;99.90;;;;;;5072178;28;20658;-75
2023/03/22 05:21:40;;;;;;;8.40;4.27;;;10.80;99.90;;;;;;5072459;28;20212;-75
2023/03/22 05:24:07;;;;;;;9.97;4.27;;;10.90;99.90;;;;;;5072565;28;20172;-75
2023/03/22 05:26:36;;;;;;;10.87;4.40;;;10.90;99.90;;;;;;5054821;28;20529;-75
2023/03/22 05:29:03;;;;;;;11.97;3.97;;;10.90;99.90;;;;;;5072451;28;20197;-75
2023/03/22 05:31:29;;;;;;;15.37;3.80;;;10.90;99.30;;;;;;5072036;28;20172;-76
2023/03/22 05:33:54;;;;;;;10.23;4.20;;;10.90;99.30;;;;;;5058397;28;20176;-76
2023/03/22 05:36:21;;;;;;;13.23;4.03;;;10.90;98.60;;;;;;5058642;28;20261;-75
2023/03/22 05:38:47;;;;;;;7.73;4.43;;;11.00;96.10;;;;;;5076651;28;20317;-76
2023/03/22 05:41:13;;;;;;;7.93;3.90;;;10.90;97.30;;;;;;5076616;28;20245;-75
2023/03/22 05:43:39;;;;;;;7.03;3.27;;;10.90;97.00;;;;;;5076638;28;20195;-76
2023/03/22 05:46:10;;;;;;;8.47;3.40;;;11.00;96.60;;;;;;5075908;28;20215;-76
2023/03/22 05:48:37;;;;;;;10.87;3.63;;;11.10;95.00;;;;;;5076350;28;20265;-76
2023/03/22 05:51:12;;;;;;;11.80;3.33;;;11.00;92.40;;;;;;5075743;28;20173;-76
2023/03/22 05:53:38;;;;;;;6.00;3.33;;;11.10;91.70;;;;;;5076206;28;20262;-76
2023/03/22 05:56:04;;;;;;;13.70;3.97;;;11.10;90.20;;;;;;5058502;28;20177;-76
2023/03/22 05:58:31;;;;;;;11.13;3.33;;;11.10;90.20;;;;;;5076247;28;20220;-75
2023/03/22 06:01:04;;;;;;;13.73;3.40;;;11.10;90.00;;;;;;5074992;28;20230;-76
2023/03/22 06:03:30;;;;;;;7.60;2.90;;;11.10;81.60;;;;;;5075546;28;20169;-76
2023/03/22 06:05:58;;;;;;;11.70;3.23;;;11.10;77.20;;;;;;5075355;28;20712;-76
2023/03/22 06:08:24;;;;;;;6.07;2.87;;;11.10;81.90;;;;;;5075870;28;20663;-75
2023/03/22 06:10:51;;;;;;;11.67;2.80;;;11.00;79.30;;;;;;5075686;28;20226;-76
2023/03/22 06:13:18;;;;;;;9.20;2.60;;;11.00;82.30;;;;;;5075126;28;20215;-75
2023/03/22 06:15:44;;;;;;;9.00;2.73;;;11.00;79.00;;;;;;5075149;28;20224;-75
2023/03/22 06:18:10;;;;;;;9.87;2.70;;;11.10;72.80;;;;;;5075662;28;20173;-76
2023/03/22 06:20:38;;;;;;;9.77;2.83;;;11.10;66.40;;;;;;5075936;28;20169;-76
2023/03/22 06:23:05;;;;;;;10.43;3.23;;;11.10;62.80;;;;;;5075528;28;20619;-76
2023/03/22 06:25:31;;;;;;;8.23;2.70;;;11.10;67.00;;;;;;5074803;28;20175;-75
2023/03/22 06:27:56;;;;;;;10.07;2.70;;;11.10;66.90;;;;;;5057812;28;20176;-75
2023/03/22 06:30:22;;;;;;;13.77;2.33;;;11.10;62.70;;;;;;5075028;28;20519;-76
2023/03/22 06:32:51;;;;;;;11.97;3.23;;;11.10;63.50;;;;;;5075325;28;20511;-76
2023/03/22 06:35:17;;;;;;;11.40;3.20;;;11.10;60.50;;;;;;5074465;28;20181;-76
2023/03/22 06:37:43;;;;;;;16.50;3.10;;;11.30;57.30;;;;;;5074804;28;20617;-76
2023/03/22 06:40:09;;;;;;;9.40;3.00;;;11.20;57.10;;;;;;5074507;28;20507;-76
2023/03/22 06:42:35;;;;;;;9.77;3.17;;;11.30;51.50;;;;;;5073521;28;20181;-76
2023/03/22 06:45:02;;;;;;;11.90;3.70;;;11.40;53.10;;;;;;5074809;28;20212;-77
2023/03/22 06:47:36;;;;;;;13.20;3.90;;;11.40;49.10;;;;;;5074598;28;20169;-76
2023/03/22 06:50:02;;;;;;;13.17;3.80;;;11.50;48.70;;;;;;5074881;28;20206;-77
2023/03/22 06:52:28;;;;;;;12.53;3.77;;;11.60;45.40;;;;;;5074387;28;20169;-76
2023/03/22 06:54:56;;;;;;;9.27;3.77;;;11.70;39.40;;;;;;5074958;28;20169;-77
2023/03/22 06:57:22;;;;;;;7.23;3.10;;;11.70;40.60;;;;;;5074378;28;20180;-76
2023/03/22 06:59:47;;;;;;;8.80;3.23;;;11.70;37.40;;;;;;5073685;28;20196;-76
2023/03/22 07:02:13;;;;;;;10.90;3.53;;;11.70;33.10;;;;;;5074503;28;20165;-75
2023/03/22 07:04:38;;;;;;;7.47;3.50;;;11.80;34.50;;;;;;5074228;28;20251;-75
2023/03/22 07:07:04;;;;;;;14.97;3.60;;;11.90;29.90;;;;;;5074155;28;20196;-78
2023/03/22 07:09:30;;;;;;;12.67;3.47;;;12.20;27.50;;;;;;5074128;28;20204;-77
2023/03/22 07:11:56;;;;;;;11.47;3.70;;;13.00;5.70;;;;;;5055560;28;20271;-77
2023/03/22 07:14:21;;;;;;;13.13;2.90;;;13.50;1.00;;;;;;5074118;28;20176;-78
2023/03/22 07:16:47;;;;;;;15.40;3.13;;;13.80;1.00;;;;;;5073898;28;20223;-76
2023/03/22 07:19:13;;;;;;;8.77;2.93;;;14.10;1.00;;;;;;5073912;28;20176;-78
2023/03/22 07:21:39;;;;;;;9.80;2.47;;;14.50;1.00;;;;;;5055891;28;20168;-77
2023/03/22 07:24:06;;;;;;;9.47;2.73;;;15.10;1.00;;;;;;5073964;28;20218;-77
2023/03/22 07:26:32;;;;;;;7.60;2.70;;;15.20;1.00;;;;;;5073095;28;20173;-77
2023/03/22 07:28:57;;;;;;;10.20;2.80;;;15.30;1.00;;;;;;5073360;28;20196;-76
2023/03/22 07:31:23;;;;;;;12.97;2.70;;;15.60;1.00;;;;;;5073659;28;20519;-76
2023/03/22 07:33:49;;;;;;;7.60;2.77;;;15.90;1.00;;;;;;5073526;28;20176;-77
2023/03/22 07:36:22;;;;;;;11.13;3.07;;;15.50;1.00;;;;;;5073288;28;20259;-77
2023/03/22 07:38:49;;;;;;;10.30;2.80;;;15.10;1.00;;;;;;5055319;28;20538;-78
2023/03/22 07:41:15;;;;;;;7.57;2.97;;;14.80;1.00;;;;;;5073243;28;20482;-78
2023/03/22 07:43:41;;;;;;;7.40;3.40;;;14.40;1.00;;;;;;5073555;28;20294;-77
2023/03/22 07:46:07;;;;;;;8.90;3.17;;;14.20;1.00;;;;;;5073588;28;20177;-78
2023/03/22 07:48:33;;;;;;;8.27;3.03;;;14.10;1.00;;;;;;5073463;28;20639;-78
2023/03/22 07:50:58;;;;;;;8.43;2.97;;;14.20;1.00;;;;;;5073068;28;20161;-77
2023/03/22 07:53:24;;;;;;;7.77;3.23;;;14.00;1.00;;;;;;5072868;28;20182;-78
2023/03/22 07:55:50;;;;;;;8.97;3.77;;;13.60;1.00;;;;;;5072193;28;20171;-77
2023/03/22 07:58:19;;;;;;;9.20;3.20;;;13.40;1.00;;;;;;5054880;28;20203;-77
2023/03/22 08:00:44;;;;;;;7.37;3.47;;;13.30;1.00;;;;;;5073498;28;20320;-77
2023/03/22 08:03:12;;;;;;;8.50;3.07;;;13.20;1.00;;;;;;5073071;28;20204;-77
2023/03/22 08:05:41;;;;;;;11.40;4.13;;;13.10;1.00;;;;;;5073195;28;20639;-76
2023/03/22 08:08:12;;;;;;;8.83;2.97;;;13.10;1.00;;;;;;5073113;28;20168;-76
2023/03/22 08:10:37;;;;;;;9.00;3.33;;;13.10;1.00;;;;;;5073163;28;20200;-77
2023/03/22 08:13:03;;;;;;;9.03;2.93;;;13.00;1.00;;;;;;5054655;28;20562;-76
2023/03/22 08:15:29;;;;;;;10.37;3.40;;;12.80;2.80;;;;;;5072913;28;20222;-76
2023/03/22 08:17:59;;;;;;;9.83;2.70;;;12.80;8.10;;;;;;5073338;28;20255;-77
2023/03/22 08:20:27;;;;;;;7.33;2.57;;;12.70;6.90;;;;;;5072758;28;20309;-75
2023/03/22 08:22:54;;;;;;;7.50;2.63;;;12.80;10.20;;;;;;5073337;28;20169;-77
2023/03/22 08:25:23;;;;;;;6.63;2.97;;;12.90;4.10;;;;;;5054900;28;20233;-77
2023/03/22 08:27:51;;;;;;;7.80;3.27;;;13.20;1.00;;;;;;5072200;28;20168;-77
2023/03/22 08:30:17;;;;;;;10.40;3.13;;;13.70;1.00;;;;;;5072579;28;20528;-77
2023/03/22 08:32:43;;;;;;;8.50;2.77;;;14.20;1.00;;;;;;5072821;28;20194;-78
2023/03/22 08:35:09;;;;;;;8.53;3.00;;;14.90;1.00;;;;;;5072824;28;20175;-77
2023/03/22 08:37:35;;;;;;;7.43;3.07;;;15.10;1.00;;;;;;5072106;28;20653;-77
2023/03/22 08:40:08;;;;;;;10.63;2.90;;;15.30;1.00;;;;;;5072253;28;20230;-77
2023/03/22 08:42:34;;;;;;;5.90;2.83;;;15.20;1.00;;;;;;5072083;28;20168;-78
2023/03/22 08:44:59;;;;;;;7.50;3.07;;;14.90;1.00;;;;;;5072411;28;20761;-77
2023/03/22 08:47:25;;;;;;;12.37;3.33;;;14.20;1.00;;;;;;5072868;28;20229;-77
2023/03/22 08:49:54;;;;;;;8.90;3.27;;;14.10;1.00;;;;;;5072141;28;20215;-77
2023/03/22 08:52:22;;;;;;;9.53;3.30;;;13.80;1.00;;;;;;5072376;28;20222;-77
2023/03/22 08:54:50;;;;;;;6.90;3.00;;;13.90;1.00;;;;;;5071587;28;20165;-77
2023/03/22 08:57:16;;;;;;;7.53;3.23;;;13.70;1.00;;;;;;5072412;28;20640;-77
2023/03/22 08:59:41;;;;;;;10.80;3.07;;;13.50;1.00;;;;;;5072555;28;20242;-77
2023/03/22 09:02:08;;;;;;;8.27;3.37;;;13.60;1.00;;;;;;5054044;28;20203;-77
2023/03/22 09:04:34;;;;;;;11.73;3.33;;;13.40;1.00;;;;;;5072130;28;20164;-77
2023/03/22 09:06:59;;;;;;;9.77;2.97;;;13.40;1.00;;;;;;5072074;28;20589;-75
2023/03/22 09:09:25;;;;;;;12.23;3.83;;;13.50;1.00;;;;;;5071560;28;20204;-77
2023/03/22 09:11:50;;;;;;;11.70;3.60;;;13.60;1.00;;;;;;5072330;28;20183;-76
2023/03/22 09:14:16;;;;;;;11.00;3.57;;;13.80;1.00;;;;;;5071751;28;20177;-75
2023/03/22 09:16:45;;;;;;;8.07;3.43;;;13.90;1.00;;;;;;5072600;28;20579;-77
2023/03/22 09:19:11;;;;;;;11.13;3.40;;;14.00;1.00;;;;;;5054195;28;20658;-77
2023/03/22 09:21:37;;;;;;;12.17;4.17;;;14.10;1.00;;;;;;5054475;28;20175;-77
2023/03/22 09:24:05;;;;;;;7.40;3.20;;;14.30;1.00;;;;;;5072171;28;20183;-78
2023/03/22 09:26:31;;;;;;;8.17;3.50;;;14.30;1.00;;;;;;5072236;28;20222;-76
2023/03/22 09:28:57;;;;;;;8.93;3.20;;;14.00;1.00;;;;;;5072609;28;20215;-75
2023/03/22 09:31:22;;;;;;;6.70;3.43;;;13.80;1.00;;;;;;5072749;28;20506;-77
2023/03/22 09:33:48;;;;;;;10.80;3.47;;;13.80;1.00;;;;;;5072341;28;20200;-77
2023/03/22 09:36:13;;;;;;;9.57;3.30;;;13.60;1.00;;;;;;5072177;28;20169;-77
2023/03/22 09:38:48;;;;;;;12.03;5.10;;;13.60;1.00;;;;;;5053887;28;20181;-75
2023/03/22 09:41:16;;;;;;;10.23;3.23;;;13.50;1.00;;;;;;5071655;28;20183;-77
2023/03/22 09:43:47;;;;;;;14.87;3.40;;;13.40;1.00;;;;;;5072498;28;20251;-76
2023/03/22 09:46:16;;;;;;;7.70;2.83;;;13.30;1.00;;;;;;5072221;28;20699;-75
2023/03/22 09:48:45;;;;;;;14.13;3.60;;;13.30;1.00;;;;;;5072003;28;20270;-76
2023/03/22 09:51:28;;;;;;;8.40;2.73;;;13.30;1.00;;;;;;5054022;28;20191;-76
2023/03/22 09:53:54;;;;;;;11.23;2.80;;;13.20;1.00;;;;;;5053667;28;20185;-76
2023/03/22 09:56:24;;;;;;;7.10;2.90;;;13.10;1.00;;;;;;5054797;28;20264;-76
2023/03/22 09:59:10;;;;;;;8.37;3.00;;;13.00;12.60;;;;;;5053714;28;20185;-76
2023/03/22 10:01:55;;;;;;;6.00;2.60;;;12.90;21.90;;;;;;5072002;28;20169;-76
2023/03/22 10:04:25;;;;;;;5.27;2.07;;;13.00;21.60;;;;;;5071854;28;20222;-77
2023/03/22 10:07:07;;;;;;;8.77;2.60;;;13.10;16.10;;;;;;5071719;28;20176;-75
2023/03/22 10:09:55;;;;;;;9.33;2.40;;;13.00;25.10;;;;;;5071764;28;20208;-74
2023/03/22 10:12:58;;;;;;;9.53;2.50;;;12.70;26.80;;;;;;5071464;28;20160;-74
2023/03/22 10:15:33;;;;;;;12.10;2.67;;;12.70;42.40;;;;;;5065870;28;20505;-71
2023/03/22 10:18:01;;;;;;;12.43;3.20;;;12.70;50.30;;;;;;5072781;28;20180;-73
2023/03/22 10:20:55;;;;;;;9.37;3.50;;;12.70;46.60;;;;;;5075725;28;20182;-72
2023/03/22 10:23:36;;;;;;;7.50;3.07;;;12.60;53.90;;;;;;5070733;28;20183;-72
2023/03/22 10:26:03;;;;;;;9.00;2.90;;;12.60;48.60;;;;;;5075208;28;20176;-72
2023/03/22 10:28:38;;;;;;;9.90;2.87;;;12.70;54.50;;;;;;5074902;28;20215;-72
2023/03/22 10:31:05;;;;;;;8.27;2.87;;;12.70;55.40;;;;;;5075268;28;20164;-72
2023/03/22 10:33:34;;;;;;;9.63;3.23;;;12.80;52.10;;;;;;5075130;28;20577;-72
2023/03/22 10:36:01;;;;;;;5.23;3.10;;;12.60;58.20;;;;;;5075188;28;20176;-73
2023/03/22 10:38:28;;;;;;;11.03;3.30;;;12.80;56.10;;;;;;5075184;28;20207;-71
2023/03/22 10:40:57;;;;;;;6.13;3.30;;;12.80;52.40;;;;;;5057242;28;20268;-72
2023/03/22 10:43:34;;;;;;;7.23;3.13;;;12.80;57.60;;;;;;5074873;28;20204;-73
2023/03/22 10:46:03;;;;;;;8.17;3.43;;;12.60;76.50;;;;;;5075000;28;20716;-72
2023/03/22 10:48:46;;;;;;;6.87;2.93;;;12.50;83.70;;;;;;5075392;28;20224;-72
2023/03/22 10:51:37;;;;;;;7.83;3.53;;;12.40;93.40;;;;;;5074864;28;20180;-71
2023/03/22 10:54:04;;;;;;;9.40;4.10;;;12.30;98.00;;;;;;5074856;28;20207;-73
2023/03/22 10:56:30;;;;;;;59.97;41.20;;;12.50;99.90;;;;;;5074772;28;20168;-71
2023/03/22 10:58:56;;;;;;;223.17;146.70;;;12.40;97.90;;;;;;5074838;28;20191;-73
2023/03/22 11:01:26;;;;;;;24.30;14.57;;;12.40;99.30;;;;;;5074218;28;20695;-73
2023/03/22 11:03:57;;;;;;;24.47;12.57;;;12.50;97.50;;;;;;5073895;28;20203;-73
2023/03/22 11:06:35;;;;;;;15.53;7.13;;;12.60;97.90;;;;;;5073975;28;20275;-72
2023/03/22 11:09:16;;;;;;;10.83;3.60;;;12.80;91.20;;;;;;5074766;28;20200;-72
2023/03/22 11:11:52;;;;;;;18.13;8.53;;;12.90;88.30;;;;;;5074553;28;20521;-72
2023/03/22 11:14:34;;;;;;;29.97;13.30;;;12.90;81.90;;;;;;5074556;28;20207;-73
2023/03/22 11:17:05;;;;;;;10.83;5.33;;;12.90;81.20;;;;;;5052976;28;20224;-73
2023/03/22 11:19:34;;;;;;;7.80;3.60;;;12.90;77.20;;;;;;5054339;28;20184;-74
2023/03/22 11:22:02;;;;;;;7.57;3.13;;;12.90;73.50;;;;;;5054173;28;20173;-73
2023/03/22 11:24:31;;;;;;;12.40;4.23;;;12.80;77.50;;;;;;5052924;28;20594;-73
2023/03/22 11:27:21;;;;;;;7.70;4.47;;;12.80;80.20;;;;;;5053409;28;20176;-73
2023/03/22 11:29:52;;;;;;;9.40;4.97;;;12.90;81.30;;;;;;5054214;28;20219;-73
2023/03/22 11:32:29;;;;;;;6.73;3.80;;;12.90;75.30;;;;;;5052679;28;20181;-73
2023/03/22 11:35:12;;;;;;;12.00;7.27;;;13.00;70.00;;;;;;5054249;28;20173;-73
2023/03/22 11:37:50;;;;;;;12.33;5.70;;;13.10;71.70;;;;;;5052408;28;20226;-73
2023/03/22 11:40:25;;;;;;;17.87;10.23;;;13.10;80.00;;;;;;5053679;28;20170;-72
2023/03/22 11:43:21;;;;;;;9.90;4.90;;;12.90;99.20;;;;;;5054092;28;20219;-73
2023/03/22 11:45:49;;;;;;;9.53;4.60;;;12.80;98.90;;;;;;5027939;28;20589;-73
2023/03/22 11:48:19;;;;;;;9.20;4.90;;;12.80;99.90;;;;;;5052279;28;20577;-72
2023/03/22 11:50:45;;;;;;;13.67;4.83;;;12.90;97.20;;;;;;5052933;28;20222;-74
2023/03/22 11:53:23;;;;;;;7.33;4.47;;;13.10;95.00;;;;;;5053649;28;20173;-73
2023/03/22 11:55:51;;;;;;;8.70;4.43;;;13.20;90.40;;;;;;5053723;28;20640;-73
2023/03/22 11:58:40;;;;;;;7.97;4.43;;;13.30;86.50;;;;;;5053304;28;20212;-72
2023/03/22 12:01:11;;;;;;;10.00;4.47;;;13.50;82.70;;;;;;5033288;28;20173;-73
2023/03/22 12:03:39;;;;;;;7.60;4.13;;;13.70;67.90;;;;;;5052498;28;20176;-73
2023/03/22 12:06:17;;;;;;;19.03;12.00;;;13.70;50.60;;;;;;5053054;28;20314;-72
2023/03/22 12:08:52;;;;;;;10.60;5.27;;;13.60;61.30;;;;;;5054208;28;20254;-74
2023/03/22 12:11:52;;;;;;;23.20;13.63;;;13.60;62.60;;;;;;5052644;28;20179;-73
2023/03/22 12:14:23;;;;;;;8.67;5.17;;;13.80;54.50;;;;;;5053103;28;20299;-72
2023/03/22 12:16:54;;;;;;;14.00;8.30;;;13.60;54.30;;;;;;5064418;28;20228;-73
2023/03/22 12:19:37;;;;;;;12.27;6.33;;;13.70;51.20;;;;;;5072819;28;20179;-72
2023/03/22 12:22:11;;;;;;;13.03;6.20;;;13.70;51.40;;;;;;5073120;28;20172;-74
2023/03/22 12:24:37;;;;;;;9.87;4.80;;;13.60;53.00;;;;;;5055496;28;20207;-73
2023/03/22 12:27:16;;;;;;;10.47;6.17;;;13.50;52.50;;;;;;5055075;28;20172;-72
2023/03/22 12:29:52;;;;;;;20.30;13.80;;;13.50;54.20;;;;;;5072493;28;20216;-73
2023/03/22 12:32:23;;;;;;;11.30;6.10;;;13.40;60.10;;;;;;5072500;28;20168;-74
2023/03/22 12:34:51;;;;;;;11.20;6.60;;;13.30;67.30;;;;;;5072385;28;20180;-74
2023/03/22 12:37:24;;;;;;;15.67;7.83;;;13.40;69.10;;;;;;5072957;28;20191;-73
2023/03/22 12:39:58;;;;;;;15.87;7.30;;;13.30;73.20;;;;;;5071918;28;20224;-72
2023/03/22 12:42:34;;;;;;;13.23;7.43;;;13.20;81.10;;;;;;5072048;28;20177;-73
2023/03/22 12:45:28;;;;;;;13.80;7.47;;;13.20;83.60;;;;;;5072939;28;20168;-73
2023/03/22 12:48:14;;;;;;;12.20;6.60;;;13.10;86.70;;;;;;5070669;28;20234;-73
2023/03/22 12:50:51;;;;;;;15.00;6.67;;;13.20;78.90;;;;;;5071697;28;20204;-73
2023/03/22 12:53:17;;;;;;;12.20;6.73;;;13.30;83.00;;;;;;5072524;28;20172;-73
2023/03/22 12:55:45;;;;;;;10.97;7.73;;;13.30;81.20;;;;;;5072720;28;20255;-74
2023/03/22 12:58:14;;;;;;;17.30;7.60;;;13.20;80.70;;;;;;5072296;28;20196;-72
2023/03/22 13:00:46;;;;;;;13.23;7.90;;;13.20;87.40;;;;;;5072738;28;20217;-72